createdAt,value
2019-04-16T03:47:56.278Z,98901.52
2019-04-16T03:51:09.991Z,98898.11
2019-04-16T03:54:27.182Z,98902.94
2019-04-16T03:57:16.120Z,98897.79
2019-04-16T04:00:00.470Z,98894.58
2019-04-16T04:02:40.569Z,98893.91
2019-04-16T04:05:22.348Z,98887.38
2019-04-16T04:07:59.025Z,98891.10
2019-04-16T04:10:36.797Z,98892.19
2019-04-16T04:13:23.379Z,98893.88
2019-04-16T04:16:01.529Z,98905.73
2019-04-16T04:18:31.519Z,98917.59
2019-04-16T04:21:07.153Z,98908.70
2019-04-16T04:23:46.854Z,98913.27
2019-04-16T04:26:19.751Z,98917.71
2019-04-16T04:28:58.005Z,98919.84
2019-04-16T04:31:42.159Z,98932.53
2019-04-16T04:35:07.049Z,98865.27
2019-04-16T04:38:18.694Z,98930.58
2019-04-16T04:40:59.691Z,98922.95
2019-04-16T04:43:50.547Z,98931.42
2019-04-16T04:46:30.896Z,98926.33
2019-04-16T04:49:07.220Z,98921.45
2019-04-16T04:52:00.946Z,98922.28
2019-04-16T04:54:35.593Z,98927.51
2019-04-16T04:57:12.300Z,98929.59
2019-04-16T04:59:58.150Z,98935.75
2019-04-16T05:02:34.033Z,98933.37
2019-04-16T05:11:30.214Z,98939.36
2019-04-16T05:14:14.434Z,98940.58
2019-04-16T05:17:00.110Z,98936.75
2019-04-16T05:19:46.053Z,98935.95
2019-04-16T05:22:32.957Z,98933.73
2019-04-16T05:25:08.801Z,98930.81
2019-04-16T05:27:56.304Z,98936.50
2019-04-16T05:30:34.030Z,98943.73
2019-04-16T05:33:09.564Z,98945.27
2019-04-16T05:35:49.356Z,98955.84
2019-04-16T05:38:26.186Z,98955.52
2019-04-16T05:41:12.483Z,98955.52
2019-04-16T05:43:48.395Z,98953.98
2019-04-16T05:46:26.392Z,98958.64
2019-04-16T05:49:00.418Z,98962.39
2019-04-16T05:51:40.129Z,98960.39
2019-04-16T05:54:47.532Z,98955.77
2019-04-16T05:57:57.917Z,98957.58
2019-04-16T06:01:17.974Z,98953.79
2019-04-16T06:03:58.540Z,98953.59
2019-04-16T06:06:33.366Z,98951.21
2019-04-16T06:09:17.796Z,98954.19
2019-04-16T06:12:01.177Z,98956.09
2019-04-16T06:14:41.587Z,98956.94
2019-04-16T06:17:49.569Z,98953.77
2019-04-16T06:21:13.459Z,98950.07
2019-04-16T06:24:21.286Z,98957.14
2019-04-16T06:27:12.244Z,98952.89
2019-04-16T06:30:19.384Z,98951.30
2019-04-16T06:33:27.491Z,98950.98
2019-04-16T06:36:26.087Z,98946.86
2019-04-16T06:39:36.641Z,98953.43
2019-04-16T06:42:29.157Z,98943.86
2019-04-16T06:45:25.936Z,98944.75
2019-04-16T06:48:06.155Z,98950.07
2019-04-16T06:50:58.867Z,98951.00
2019-04-16T06:53:42.816Z,98941.63
2019-04-16T06:56:40.332Z,98946.94
2019-04-16T06:59:30.948Z,98939.98
2019-04-16T07:02:32.395Z,98940.84
2019-04-16T07:05:34.641Z,98937.66
2019-04-16T07:08:36.948Z,98929.98
2019-04-16T07:11:05.358Z,98938.91
2019-04-16T07:13:42.175Z,98939.08
2019-04-16T07:16:19.779Z,98940.89
2019-04-16T07:18:59.713Z,98936.04
2019-04-16T07:21:33.935Z,98937.73
2019-04-16T07:24:08.068Z,98930.02
2019-04-16T07:26:46.408Z,98936.52
2019-04-16T07:29:37.019Z,98937.66
2019-04-16T07:32:28.903Z,98940.02
2019-04-16T07:35:33.095Z,98939.09
2019-04-16T07:38:18.540Z,98935.86
2019-04-16T07:41:21.413Z,98934.58
2019-04-16T07:44:13.433Z,98941.55
2019-04-16T07:47:19.649Z,98938.16
2019-04-16T07:50:09.086Z,98929.89
2019-04-16T07:53:24.816Z,98928.01
2019-04-16T07:56:23.278Z,98921.86
2019-04-16T07:59:01.275Z,98924.95
2019-04-16T08:01:47.790Z,98920.50
2019-04-16T08:04:28.668Z,98925.88
2019-04-16T08:06:57.768Z,98913.00
2019-04-16T08:09:33.862Z,98912.25
2019-04-16T08:12:21.898Z,98916.22
2019-04-16T08:14:48.191Z,98911.64
2019-04-16T08:17:21.678Z,98902.09
2019-04-16T08:20:06.976Z,98913.04
2019-04-16T08:22:47.249Z,98905.08
2019-04-16T08:25:23.385Z,98899.88
2019-04-16T08:27:59.582Z,98905.28
2019-04-16T08:30:39.011Z,98904.08
2019-04-16T08:33:13.776Z,98904.19
2019-04-16T08:35:50.706Z,98903.45
2019-04-16T08:38:25.900Z,98904.30
2019-04-16T08:41:01.914Z,98901.12
2019-04-16T08:43:39.070Z,98903.98
2019-04-16T08:46:19.018Z,98898.41
2019-04-16T08:48:59.336Z,98897.38
2019-04-16T08:51:56.446Z,98902.52
2019-04-16T08:54:33.384Z,98889.51
2019-04-16T08:57:07.939Z,98897.78
2019-04-16T08:59:45.638Z,98892.30
2019-04-16T09:02:26.996Z,98892.30
2019-04-16T09:04:59.386Z,98889.62
2019-04-16T09:07:44.190Z,98890.38
2019-04-16T09:10:30.098Z,98893.38
2019-04-16T09:13:05.421Z,98892.70
2019-04-16T09:15:38.565Z,98901.28
2019-04-16T09:18:23.757Z,98897.81
2019-04-16T09:21:12.260Z,98896.61
2019-04-16T09:24:14.106Z,98882.52
2019-04-16T09:26:55.755Z,98890.15
2019-04-16T09:29:42.655Z,98877.47
2019-04-16T09:32:39.480Z,98891.48
2019-04-16T09:35:38.792Z,98877.55
2019-04-16T09:38:35.399Z,98875.64
2019-04-16T09:41:31.836Z,98884.62
2019-04-16T09:44:05.898Z,98880.87
2019-04-16T09:46:53.586Z,98885.19
2019-04-16T09:49:18.397Z,98883.84
2019-04-16T09:51:54.537Z,98889.46
2019-04-16T09:54:29.410Z,98884.92
2019-04-16T09:57:03.994Z,98878.47
2019-04-16T09:59:39.689Z,98869.59
2019-04-16T10:02:32.680Z,98865.53
2019-04-16T10:05:12.813Z,98867.92
2019-04-16T10:07:50.742Z,98867.42
2019-04-16T10:10:50.652Z,98858.57
2019-04-16T10:13:45.095Z,98874.11
2019-04-16T10:16:21.586Z,98864.88
2019-04-16T10:19:09.245Z,98860.09
2019-04-16T10:21:55.747Z,98866.16
2019-04-16T10:24:46.570Z,98857.83
2019-04-16T10:27:43.079Z,98841.34
2019-04-16T10:30:30.223Z,98846.08
2019-04-16T10:33:04.971Z,98846.46
2019-04-16T10:35:41.070Z,98845.62
2019-04-16T10:38:34.451Z,98839.85
2019-04-16T10:41:35.412Z,98835.80
2019-04-16T10:44:40.743Z,98839.44
2019-04-16T10:47:48.052Z,98829.14
2019-04-16T10:54:02.689Z,98837.67
2019-04-16T10:57:12.065Z,98834.34
2019-04-16T11:00:24.807Z,98830.84
2019-04-16T11:03:28.658Z,98831.28
2019-04-16T11:06:13.955Z,98825.77
2019-04-16T11:08:47.185Z,98814.56
2019-04-16T11:11:27.960Z,98824.16
2019-04-16T11:14:00.643Z,98826.84
2019-04-16T11:16:47.042Z,98825.13
2019-04-16T11:19:26.571Z,98824.27
2019-04-16T11:22:05.754Z,98808.01
2019-04-16T11:24:41.710Z,98815.62
2019-04-16T11:27:18.614Z,98817.14
2019-04-16T11:29:50.328Z,98815.02
2019-04-16T11:32:30.217Z,98804.25
2019-04-16T11:35:26.268Z,98820.98
2019-04-16T11:38:05.832Z,98809.44
2019-04-16T11:40:41.487Z,98813.58
2019-04-16T11:43:17.354Z,98811.08
2019-04-16T11:46:17.231Z,98803.59
2019-04-16T11:48:59.038Z,98806.55
2019-04-16T11:51:41.363Z,98798.87
2019-04-16T11:54:24.934Z,98801.57
2019-04-16T11:57:07.036Z,98814.31
2019-04-16T11:59:48.138Z,98804.23
2019-04-16T12:02:31.009Z,98798.68
2019-04-16T12:05:26.947Z,98801.49
2019-04-16T12:08:32.743Z,98802.68
2019-04-16T12:11:28.415Z,98809.48
2019-04-16T12:14:30.687Z,98806.13
2019-04-16T12:17:16.724Z,98807.20
2019-04-16T12:20:09.111Z,98808.18
2019-04-16T12:22:53.934Z,98795.91
2019-04-16T12:26:01.179Z,98808.91
2019-04-16T12:29:16.137Z,98792.00
2019-04-16T12:32:22.040Z,98806.38
2019-04-16T12:35:35.703Z,98789.86
2019-04-16T12:38:25.934Z,98784.30
2019-04-16T12:41:24.656Z,98784.88
2019-04-16T12:44:13.366Z,98784.05
2019-04-16T12:47:13.393Z,98784.05
2019-04-16T12:49:57.443Z,98779.05
2019-04-16T12:52:51.915Z,98783.55
2019-04-16T12:59:26.428Z,98780.16
2019-04-16T13:02:21.049Z,98778.38
2019-04-16T13:05:07.136Z,98770.17
2019-04-16T13:08:13.132Z,98776.98
2019-04-16T13:11:11.890Z,98773.06
2019-04-16T13:13:58.123Z,98763.12
2019-04-16T13:16:44.696Z,98757.75
2019-04-16T13:19:45.832Z,98760.66
2019-04-16T13:22:27.417Z,98768.52
2019-04-16T13:25:10.921Z,98757.31
2019-04-16T13:27:50.836Z,98746.38
2019-04-16T13:30:27.255Z,98745.38
2019-04-16T13:33:00.860Z,98742.64
2019-04-16T13:35:39.754Z,98743.41
2019-04-16T13:38:18.487Z,98738.69
2019-04-16T13:40:54.186Z,98737.28
2019-04-16T13:43:36.716Z,98736.64
2019-04-16T13:46:14.897Z,98728.65
2019-04-16T13:48:59.446Z,98731.92
2019-04-16T13:51:34.945Z,98732.51
2019-04-16T13:54:45.018Z,98737.95
2019-04-16T13:57:22.541Z,98735.77
2019-04-16T14:00:11.018Z,98723.03
2019-04-16T14:02:57.753Z,98728.37
2019-04-16T14:05:29.964Z,98738.64
2019-04-16T14:08:13.873Z,98731.09
2019-04-16T14:10:49.516Z,98731.48
2019-04-16T14:13:33.089Z,98725.27
2019-04-16T14:16:18.896Z,98725.27
2019-04-16T14:18:53.577Z,98735.66
2019-04-16T14:21:33.130Z,98734.77
2019-04-16T14:24:25.930Z,98736.74
2019-04-16T14:27:13.978Z,98738.19
2019-04-16T14:30:09.893Z,98727.47
2019-04-16T14:32:46.634Z,98742.09
2019-04-16T14:35:33.660Z,98737.20
2019-04-16T14:38:21.604Z,98724.77
2019-04-16T14:40:57.599Z,98725.50
2019-04-16T14:43:39.165Z,98727.84
2019-04-16T14:46:21.331Z,98735.41
2019-04-16T14:48:53.783Z,98733.33
2019-04-16T14:51:33.027Z,98725.50
2019-04-16T14:54:13.362Z,98730.84
2019-04-16T14:56:53.470Z,98723.52
2019-04-16T15:00:01.101Z,98735.93
2019-04-16T15:03:11.953Z,98733.53
2019-04-16T15:06:11.029Z,98724.75
2019-04-16T15:09:24.761Z,98730.42
2019-04-16T15:12:35.109Z,98734.63
2019-04-16T15:15:34.865Z,98731.34
2019-04-16T15:18:52.123Z,98729.84
2019-04-16T15:21:54.860Z,98737.25
2019-04-16T15:24:49.647Z,98735.32
2019-04-16T15:31:16.845Z,98732.35
2019-04-16T15:34:23.743Z,98736.52
2019-04-16T15:37:33.207Z,98749.58
2019-04-16T15:40:40.560Z,98739.33
2019-04-16T15:43:36.279Z,98739.56
2019-04-16T15:46:56.879Z,98736.94
2019-04-16T15:50:17.910Z,98740.02
2019-04-16T15:53:00.899Z,98738.94
2019-04-16T15:56:02.532Z,98746.85
2019-04-16T15:59:25.996Z,98741.34
2019-04-16T16:05:40.027Z,98744.78
2019-04-16T16:08:36.804Z,98741.65
2019-04-16T16:11:25.873Z,98760.05
2019-04-16T16:14:16.168Z,98753.92
2019-04-16T16:20:33.610Z,98750.48
2019-04-16T16:23:46.499Z,98759.11
2019-04-16T16:26:29.666Z,98748.38
2019-04-16T16:29:22.772Z,98757.52
2019-04-16T16:32:28.816Z,98759.28
2019-04-16T16:41:26.164Z,98768.61
2019-04-16T16:44:20.158Z,98771.09
2019-04-16T16:47:55.991Z,98769.55
2019-04-16T16:54:44.902Z,98776.70
2019-04-16T16:57:37.544Z,98788.31
2019-04-16T17:01:00.350Z,98781.87
2019-04-16T17:07:53.678Z,98792.78
2019-04-16T17:10:57.180Z,98799.83
2019-04-16T17:15:03.579Z,98800.14
2019-04-16T17:24:20.368Z,98812.64
2019-04-16T17:28:18.220Z,98810.80
2019-04-16T17:30:56.708Z,98811.08
2019-04-16T17:37:00.738Z,98823.84
2019-04-16T17:40:02.086Z,98829.50
2019-04-16T17:58:06.321Z,98862.88
2019-04-16T18:01:55.777Z,98870.66
2019-04-16T18:04:55.616Z,98876.84
2019-04-16T18:12:59.476Z,98889.17
2019-04-16T18:16:22.196Z,98888.32
2019-04-16T18:19:57.654Z,98898.22
2019-04-16T18:23:41.502Z,98901.64
2019-04-16T18:30:21.932Z,98913.02
2019-04-16T18:33:52.348Z,98925.42
2019-04-16T18:36:45.292Z,98925.53
2019-04-16T18:43:50.034Z,98943.08
2019-04-16T18:47:04.334Z,98948.80
2019-04-16T18:49:47.846Z,98956.59
2019-04-16T18:52:27.447Z,98968.64
2019-04-16T18:55:17.610Z,98974.34
2019-04-16T18:59:21.092Z,98979.47
2019-04-16T19:02:13.831Z,98988.37
2019-04-16T19:05:05.990Z,98988.30
2019-04-16T19:07:44.254Z,98994.55
2019-04-16T19:10:24.054Z,98996.17
2019-04-16T19:13:11.194Z,98997.70
2019-04-16T19:15:43.015Z,99007.55
2019-04-16T19:19:06.697Z,99007.17
2019-04-16T19:25:33.159Z,99020.34
2019-04-16T19:28:06.992Z,99020.45
2019-04-16T19:30:50.562Z,99020.45
2019-04-16T19:33:38.245Z,99025.45
2019-04-16T19:36:22.327Z,99024.67
2019-04-16T19:39:34.054Z,99022.22
2019-04-16T19:46:15.718Z,99021.32
2019-04-16T19:49:08.089Z,99022.62
2019-04-16T19:51:45.789Z,99025.20
2019-04-16T19:54:31.696Z,99027.20
2019-04-16T19:57:06.446Z,99023.88
2019-04-16T19:59:46.407Z,99023.97
2019-04-16T20:02:20.583Z,99027.29
2019-04-16T20:09:07.343Z,99022.49
2019-04-16T20:12:10.975Z,99027.64
2019-04-16T20:14:58.978Z,99019.83
2019-04-16T20:17:39.333Z,99020.32
2019-04-16T20:20:23.403Z,99020.14
2019-04-16T20:22:59.570Z,99015.94
2019-04-16T20:47:24.271Z,99005.77
2019-04-16T20:52:10.711Z,99001.17
2019-04-16T21:02:57.170Z,99005.52
2019-04-16T21:48:05.632Z,99045.70
2019-04-16T21:50:48.234Z,99052.35
2019-04-16T21:53:37.224Z,99052.53
2019-04-16T21:56:42.088Z,99046.72
2019-04-16T22:14:51.100Z,99055.34
2019-04-16T22:26:17.105Z,99069.31
2019-04-16T23:45:54.548Z,99103.46
